Time;durP1;ratioP1;P1;durP2;ratioP2;P2;SDS_P1;SDS_P2;PMS_P1;PMS_P2;Temp;Humidity;BMP_temperature;BMP_pressure;BME280_temperature;BME280_humidity;BME280_pressure;Samples;Min_cycle;Max_cycle;Signal;HPM_P1;HPM_P2
2022/03/18 05:00:44;;;;;;;29.40;18.53;;;8.20;99.90;;;;;;5839389;23;20489;-74
2022/03/18 05:03:12;;;;;;;31.37;19.67;;;8.30;99.90;;;;;;4953392;29;20458;-75
2022/03/18 05:05:39;;;;;;;32.60;19.50;;;8.20;99.90;;;;;;4953301;29;20489;-74
2022/03/18 05:08:06;;;;;;;28.50;19.03;;;8.20;99.90;;;;;;4953512;28;20479;-76
2022/03/18 05:10:33;;;;;;;29.73;19.00;;;8.20;99.90;;;;;;4953827;29;20480;-74
2022/03/18 05:13:03;;;;;;;30.37;19.40;;;8.20;99.90;;;;;;4938495;29;20454;-75
2022/03/18 05:15:31;;;;;;;30.00;19.87;;;8.30;99.90;;;;;;4937969;29;20521;-74
2022/03/18 05:17:59;;;;;;;33.07;19.73;;;8.20;99.90;;;;;;4937919;29;20463;-74
2022/03/18 05:20:26;;;;;;;28.67;19.57;;;8.20;99.90;;;;;;4937835;29;20458;-74
2022/03/18 05:22:53;;;;;;;33.50;20.33;;;8.20;99.90;;;;;;4937880;29;20486;-75
2022/03/18 05:25:21;;;;;;;29.80;19.20;;;8.20;99.90;;;;;;4938157;29;20494;-73
2022/03/18 05:27:49;;;;;;;31.23;19.50;;;8.10;99.90;;;;;;4937696;29;20835;-74
2022/03/18 05:30:17;;;;;;;34.67;20.97;;;8.10;99.90;;;;;;4938127;29;20553;-74
2022/03/18 05:32:43;;;;;;;32.97;19.90;;;8.10;99.90;;;;;;4938085;29;20469;-74
2022/03/18 05:35:12;;;;;;;42.70;25.50;;;8.20;99.90;;;;;;4937879;29;20543;-74
2022/03/18 05:37:39;;;;;;;35.47;24.20;;;8.20;99.90;;;;;;4937268;29;21102;-75
2022/03/18 05:40:08;;;;;;;38.40;23.40;;;8.20;99.90;;;;;;4944880;29;20453;-74
2022/03/18 05:42:35;;;;;;;33.80;21.20;;;8.20;99.90;;;;;;4956849;28;20571;-74
2022/03/18 05:45:02;;;;;;;37.63;22.60;;;8.20;99.90;;;;;;4953597;29;20442;-75
2022/03/18 05:47:30;;;;;;;36.27;22.37;;;8.10;99.90;;;;;;4937252;29;20545;-75
2022/03/18 05:50:03;;;;;;;40.20;22.60;;;8.10;99.90;;;;;;4937485;29;20486;-75
2022/03/18 05:52:31;;;;;;;37.50;24.13;;;8.10;99.90;;;;;;4937379;29;20502;-75
2022/03/18 05:54:58;;;;;;;36.00;22.40;;;8.10;99.90;;;;;;4937034;29;20962;-75
2022/03/18 05:57:26;;;;;;;41.33;24.70;;;8.10;99.90;;;;;;4937313;29;20471;-74
2022/03/18 05:59:54;;;;;;;39.90;23.83;;;8.10;99.90;;;;;;4937432;29;20521;-74
2022/03/18 06:02:22;;;;;;;41.20;22.17;;;8.20;99.90;;;;;;4936941;29;20482;-74
2022/03/18 06:04:49;;;;;;;33.20;21.40;;;8.20;99.90;;;;;;4937248;29;20799;-74
2022/03/18 06:07:16;;;;;;;40.50;22.93;;;8.10;99.90;;;;;;4936845;29;20520;-75
2022/03/18 06:12:29;;;;;;;38.50;24.00;;;8.20;99.90;;;;;;4937048;29;20458;-76
2022/03/18 06:14:56;;;;;;;40.13;23.53;;;8.10;99.90;;;;;;4937247;29;20457;-75
2022/03/18 06:17:23;;;;;;;40.27;23.67;;;8.10;99.90;;;;;;4936782;29;20471;-75
2022/03/18 06:19:49;;;;;;;40.17;24.77;;;8.10;99.90;;;;;;4936860;29;20989;-75
2022/03/18 06:22:16;;;;;;;40.47;24.23;;;8.10;99.90;;;;;;4936666;29;21341;-74
2022/03/18 06:24:45;;;;;;;44.20;25.17;;;8.10;99.90;;;;;;4936640;29;20461;-74
2022/03/18 06:27:12;;;;;;;39.00;23.30;;;8.10;99.90;;;;;;4936604;29;20497;-74
2022/03/18 06:29:43;;;;;;;41.37;23.90;;;8.20;99.90;;;;;;4948597;29;20458;-74
2022/03/18 06:32:11;;;;;;;44.23;25.20;;;8.20;99.90;;;;;;4955675;28;20506;-76
2022/03/18 06:34:38;;;;;;;44.53;25.50;;;8.20;99.90;;;;;;4955513;29;20461;-76
2022/03/18 06:37:05;;;;;;;51.73;26.63;;;8.20;99.90;;;;;;4955776;28;20454;-76
2022/03/18 06:39:33;;;;;;;45.10;25.50;;;8.20;99.90;;;;;;4955706;28;20985;-77
2022/03/18 06:42:01;;;;;;;43.93;25.00;;;8.20;99.90;;;;;;4955674;28;21015;-76
2022/03/18 06:44:28;;;;;;;47.23;26.43;;;8.20;99.90;;;;;;4951798;29;20548;-78
2022/03/18 06:46:55;;;;;;;45.73;26.60;;;8.10;99.90;;;;;;4937046;28;20494;-77
2022/03/18 06:49:22;;;;;;;47.97;26.93;;;8.10;99.90;;;;;;4936113;29;20549;-77
2022/03/18 06:51:49;;;;;;;54.40;29.10;;;8.20;99.90;;;;;;4935960;29;20474;-77
2022/03/18 06:54:16;;;;;;;50.13;28.33;;;8.20;99.90;;;;;;4935998;29;20517;-77
2022/03/18 06:56:44;;;;;;;54.43;26.60;;;8.20;99.90;;;;;;4936192;29;20585;-77
2022/03/18 06:59:12;;;;;;;50.67;27.23;;;8.20;99.90;;;;;;4936194;29;20835;-77
2022/03/18 07:01:39;;;;;;;48.57;27.63;;;8.20;99.90;;;;;;4935930;29;20492;-77
2022/03/18 07:04:05;;;;;;;47.70;26.10;;;8.30;99.90;;;;;;4936399;29;20545;-77
2022/03/18 07:06:32;;;;;;;46.53;26.80;;;8.30;99.90;;;;;;4935891;29;20529;-77
2022/03/18 07:08:59;;;;;;;48.70;27.30;;;8.20;99.90;;;;;;4936126;29;20542;-77
2022/03/18 07:11:26;;;;;;;54.27;29.17;;;8.30;99.90;;;;;;4940562;29;20485;-77
2022/03/18 07:13:53;;;;;;;48.47;29.40;;;8.30;99.90;;;;;;4955076;28;20803;-78
2022/03/18 07:19:05;;;;;;;51.40;29.57;;;8.30;99.90;;;;;;4955128;29;21001;-77
2022/03/18 07:21:34;;;;;;;53.40;29.70;;;8.30;99.90;;;;;;4954788;28;20482;-77
2022/03/18 07:24:00;;;;;;;46.43;28.03;;;8.40;99.90;;;;;;4940998;29;20451;-77
2022/03/18 07:26:28;;;;;;;47.50;28.13;;;8.40;99.90;;;;;;4935362;29;20505;-77
2022/03/18 07:28:54;;;;;;;51.90;29.17;;;8.50;99.90;;;;;;4935629;29;20459;-76
2022/03/18 07:31:23;;;;;;;59.87;29.43;;;8.50;99.90;;;;;;4935336;29;20570;-77
2022/03/18 07:33:51;;;;;;;49.03;28.40;;;8.60;99.90;;;;;;4935588;29;20459;-76
2022/03/18 07:36:18;;;;;;;51.77;30.47;;;8.60;99.90;;;;;;4949739;29;20458;-76
2022/03/18 07:38:45;;;;;;;46.27;27.33;;;8.60;99.90;;;;;;4954647;29;20471;-76
2022/03/18 07:41:12;;;;;;;50.67;29.80;;;8.70;99.90;;;;;;4954394;28;20474;-76
2022/03/18 07:43:39;;;;;;;44.87;27.00;;;8.60;99.90;;;;;;4954654;29;20544;-76
2022/03/18 07:46:06;;;;;;;49.03;27.40;;;8.70;99.90;;;;;;4954042;29;21009;-77
2022/03/18 07:48:39;;;;;;;41.67;26.40;;;8.80;99.90;;;;;;4954122;29;20505;-76
2022/03/18 07:51:06;;;;;;;47.43;27.63;;;8.80;99.90;;;;;;4954312;28;20977;-76
2022/03/18 07:53:33;;;;;;;41.33;25.57;;;8.80;99.90;;;;;;4954230;29;20460;-76
2022/03/18 07:56:00;;;;;;;43.90;25.73;;;8.80;99.90;;;;;;4954032;29;20453;-76
2022/03/18 07:58:27;;;;;;;43.03;25.73;;;8.90;99.90;;;;;;4954113;29;20465;-76
2022/03/18 08:00:54;;;;;;;45.00;27.03;;;8.90;99.90;;;;;;4954328;28;20489;-76
2022/03/18 08:03:21;;;;;;;44.07;25.70;;;8.90;99.90;;;;;;4954367;29;20465;-77
2022/03/18 08:05:49;;;;;;;40.47;24.23;;;8.90;99.90;;;;;;4954042;29;20458;-76
2022/03/18 08:08:16;;;;;;;42.23;25.30;;;8.90;99.90;;;;;;4953638;29;20481;-76
2022/03/18 08:10:43;;;;;;;37.77;23.17;;;9.00;99.90;;;;;;4953849;28;21061;-76
2022/03/18 08:13:10;;;;;;;41.30;24.47;;;9.00;99.90;;;;;;4953911;28;20453;-76
2022/03/18 08:15:37;;;;;;;41.70;23.67;;;9.00;99.90;;;;;;4953743;28;20460;-77
2022/03/18 08:18:04;;;;;;;42.53;22.60;;;9.00;99.90;;;;;;4953408;29;20815;-76
2022/03/18 08:20:39;;;;;;;40.73;24.10;;;9.00;99.90;;;;;;4953977;28;20453;-76
2022/03/18 08:23:08;;;;;;;39.47;23.10;;;9.10;99.90;;;;;;4953775;29;20467;-76
2022/03/18 08:25:35;;;;;;;41.10;23.30;;;9.10;99.90;;;;;;4945151;28;20505;-76
2022/03/18 08:28:01;;;;;;;38.93;23.57;;;9.10;99.90;;;;;;4934423;29;20994;-76
2022/03/18 08:30:29;;;;;;;34.93;20.90;;;9.20;99.90;;;;;;4948005;28;20461;-76
2022/03/18 08:32:55;;;;;;;38.93;22.43;;;9.20;99.90;;;;;;4953794;29;20971;-76
2022/03/18 08:35:22;;;;;;;38.50;21.90;;;9.20;99.90;;;;;;4953225;29;21012;-76
2022/03/18 08:37:58;;;;;;;40.97;22.27;;;9.20;99.90;;;;;;4952224;29;21054;-76
2022/03/18 08:40:28;;;;;;;35.20;20.57;;;9.30;99.90;;;;;;4953141;28;20493;-75
2022/03/18 08:42:56;;;;;;;37.70;22.87;;;9.30;99.90;;;;;;4953185;28;20465;-76
2022/03/18 08:45:23;;;;;;;39.47;22.63;;;9.30;99.90;;;;;;4956230;28;20453;-76
2022/03/18 08:47:50;;;;;;;36.73;22.83;;;9.40;99.90;;;;;;4956779;28;20500;-76
2022/03/18 08:50:17;;;;;;;39.50;23.20;;;9.50;99.90;;;;;;4957245;28;20457;-76
2022/03/18 08:52:45;;;;;;;36.23;22.20;;;9.50;99.90;;;;;;4957531;29;20453;-77
2022/03/18 08:55:12;;;;;;;40.00;20.60;;;9.60;99.90;;;;;;4957645;29;20461;-76
2022/03/18 08:57:41;;;;;;;36.60;21.87;;;9.60;99.90;;;;;;4957191;29;20946;-77
2022/03/18 09:00:14;;;;;;;34.63;21.90;;;9.60;99.90;;;;;;4957455;29;20460;-77
2022/03/18 09:02:42;;;;;;;38.33;22.53;;;9.70;99.90;;;;;;4957143;29;20468;-76
2022/03/18 09:05:10;;;;;;;39.73;22.67;;;9.80;99.90;;;;;;4957350;29;20457;-76
2022/03/18 09:07:38;;;;;;;39.17;23.20;;;9.80;99.90;;;;;;4956948;29;20584;-76
2022/03/18 09:10:06;;;;;;;36.40;23.13;;;9.80;99.90;;;;;;4957425;29;20568;-76
2022/03/18 09:12:33;;;;;;;41.70;23.70;;;9.80;99.90;;;;;;4957014;28;20920;-77
2022/03/18 09:15:03;;;;;;;36.70;21.80;;;9.80;99.90;;;;;;4956931;29;20461;-76
2022/03/18 09:17:30;;;;;;;40.97;24.17;;;9.90;99.90;;;;;;4956904;28;20938;-76
2022/03/18 09:19:57;;;;;;;41.33;24.30;;;9.90;99.90;;;;;;4957240;29;20457;-76
2022/03/18 09:22:24;;;;;;;39.13;23.33;;;9.90;99.90;;;;;;4957304;28;20916;-76
2022/03/18 09:24:52;;;;;;;38.87;22.80;;;9.90;99.90;;;;;;4957037;29;20976;-77
2022/03/18 09:27:18;;;;;;;34.37;22.20;;;9.90;99.90;;;;;;4956728;29;21092;-76
2022/03/18 09:29:45;;;;;;;42.90;23.70;;;9.90;99.90;;;;;;4956839;29;20457;-76
2022/03/18 09:32:15;;;;;;;40.67;24.33;;;10.00;99.90;;;;;;4956950;28;20472;-76
2022/03/18 09:34:42;;;;;;;44.23;25.17;;;10.00;99.90;;;;;;4956942;28;20465;-76
2022/03/18 09:37:09;;;;;;;44.93;27.37;;;10.10;99.90;;;;;;4956649;28;20481;-76
2022/03/18 09:39:36;;;;;;;43.70;24.30;;;10.20;99.90;;;;;;4956719;29;20544;-76
2022/03/18 09:42:03;;;;;;;39.43;24.17;;;10.20;99.90;;;;;;4956596;28;20481;-76
2022/03/18 09:44:34;;;;;;;44.93;26.20;;;10.20;99.90;;;;;;4956763;29;20485;-77
2022/03/18 09:47:02;;;;;;;46.10;25.70;;;10.30;99.90;;;;;;4956693;29;20908;-77
2022/03/18 09:49:30;;;;;;;41.00;25.47;;;10.40;99.90;;;;;;4956595;29;20461;-76
2022/03/18 09:51:57;;;;;;;42.60;26.57;;;10.50;99.90;;;;;;4956629;28;20478;-76
2022/03/18 09:54:24;;;;;;;41.27;25.80;;;10.60;99.90;;;;;;4956146;28;20468;-77
2022/03/18 09:56:51;;;;;;;40.97;25.97;;;10.70;99.90;;;;;;4955869;28;20468;-77
2022/03/18 09:59:21;;;;;;;38.87;25.17;;;10.70;99.90;;;;;;4956289;29;20975;-76
2022/03/18 10:01:49;;;;;;;44.33;27.80;;;10.80;99.90;;;;;;4956195;28;21029;-77
2022/03/18 10:04:15;;;;;;;45.93;26.30;;;10.80;99.90;;;;;;4956678;29;20544;-76
2022/03/18 10:06:44;;;;;;;42.03;24.57;;;10.80;99.90;;;;;;4955956;29;20533;-76
2022/03/18 10:09:12;;;;;;;44.17;26.57;;;10.90;99.90;;;;;;4955992;29;20450;-77
2022/03/18 10:11:43;;;;;;;39.73;25.00;;;11.00;99.90;;;;;;4956463;28;20469;-76
2022/03/18 10:14:16;;;;;;;46.50;25.53;;;11.10;99.90;;;;;;4956337;29;20457;-76
2022/03/18 10:16:44;;;;;;;41.80;25.33;;;11.10;99.90;;;;;;4955955;29;20446;-77
2022/03/18 10:19:14;;;;;;;37.90;25.30;;;11.10;99.90;;;;;;4955994;29;20453;-76
2022/03/18 10:21:56;;;;;;;37.77;23.27;;;11.10;99.90;;;;;;4954767;28;20473;-77
2022/03/18 10:24:28;;;;;;;35.00;23.00;;;11.10;99.90;;;;;;4954526;29;20453;-78
2022/03/18 10:27:10;;;;;;;42.20;24.53;;;11.10;99.90;;;;;;4954722;29;20497;-77
2022/03/18 10:29:41;;;;;;;36.73;23.23;;;11.10;99.90;;;;;;4954876;29;20881;-76
2022/03/18 10:32:09;;;;;;;39.27;23.87;;;11.00;99.90;;;;;;4954805;28;20489;-77
2022/03/18 10:37:25;;;;;;;37.80;23.20;;;11.00;99.90;;;;;;4954600;29;20977;-76
2022/03/18 10:40:00;;;;;;;40.30;25.30;;;11.10;99.90;;;;;;4954973;29;20457;-77
2022/03/18 10:42:27;;;;;;;39.33;24.30;;;11.10;99.90;;;;;;4954434;28;20553;-77
2022/03/18 10:44:56;;;;;;;37.47;24.87;;;11.30;99.90;;;;;;4954878;29;20576;-77
2022/03/18 10:47:28;;;;;;;38.60;25.43;;;11.40;99.90;;;;;;4954384;29;20556;-76
2022/03/18 10:50:13;;;;;;;37.53;25.63;;;11.50;99.90;;;;;;4954503;29;20938;-76
2022/03/18 10:52:57;;;;;;;40.30;24.70;;;11.60;99.90;;;;;;4954494;29;20468;-77
2022/03/18 10:55:26;;;;;;;39.10;23.70;;;11.80;99.90;;;;;;4954390;29;20849;-77
2022/03/18 10:57:55;;;;;;;39.23;25.73;;;11.90;99.90;;;;;;4954215;29;20544;-76
2022/03/18 11:00:26;;;;;;;40.50;25.03;;;12.20;99.90;;;;;;4954094;28;21005;-76
2022/03/18 11:02:58;;;;;;;36.30;23.40;;;12.20;99.90;;;;;;4954408;28;20456;-77
2022/03/18 11:05:26;;;;;;;38.90;25.20;;;12.20;99.90;;;;;;4950721;29;20542;-77
2022/03/18 11:07:55;;;;;;;37.23;25.40;;;12.30;99.90;;;;;;4944653;29;20496;-77
2022/03/18 11:13:09;;;;;;;39.07;25.30;;;12.30;99.90;;;;;;4979802;23;21002;-75
2022/03/18 11:15:39;;;;;;;35.33;24.43;;;12.40;99.90;;;;;;4973825;28;20547;-76
2022/03/18 11:18:07;;;;;;;39.83;27.27;;;12.50;99.90;;;;;;4973058;28;20822;-75
2022/03/18 11:20:42;;;;;;;35.57;23.50;;;12.50;99.90;;;;;;4973435;28;20466;-75
2022/03/18 11:23:17;;;;;;;37.10;25.57;;;12.50;99.90;;;;;;4972925;28;20518;-75
2022/03/18 11:25:47;;;;;;;37.30;25.00;;;12.60;99.90;;;;;;4954782;28;20459;-76
2022/03/18 11:28:16;;;;;;;37.50;25.67;;;12.60;99.90;;;;;;4954930;28;20589;-75
2022/03/18 11:30:44;;;;;;;39.90;25.27;;;12.60;99.90;;;;;;4954789;28;20462;-75
2022/03/18 11:33:21;;;;;;;39.93;26.67;;;12.70;99.90;;;;;;4954758;28;20512;-76
2022/03/18 11:36:08;;;;;;;43.30;27.40;;;12.90;99.90;;;;;;4954636;29;20870;-75
2022/03/18 11:39:06;;;;;;;39.60;25.13;;;13.00;99.90;;;;;;4954291;29;20540;-75
2022/03/18 11:41:47;;;;;;;38.70;26.57;;;13.10;99.90;;;;;;4948374;28;20838;-75
2022/03/18 11:44:39;;;;;;;39.80;24.57;;;13.10;99.90;;;;;;4954341;28;20569;-75
2022/03/18 11:47:38;;;;;;;38.80;24.70;;;13.20;99.90;;;;;;4954241;28;20449;-75
2022/03/18 11:50:50;;;;;;;40.57;25.77;;;13.30;99.90;;;;;;4940170;29;20457;-75
2022/03/18 11:53:51;;;;;;;35.00;24.50;;;13.40;99.90;;;;;;4954062;28;20532;-76
2022/03/18 11:56:22;;;;;;;37.50;24.53;;;13.60;99.90;;;;;;4950330;29;20520;-76
2022/03/18 11:58:50;;;;;;;37.17;24.23;;;13.90;99.90;;;;;;4954665;29;20446;-76
2022/03/18 12:01:39;;;;;;;34.63;23.90;;;14.10;99.90;;;;;;4954513;29;20461;-76
2022/03/18 12:04:07;;;;;;;37.03;24.47;;;14.20;99.90;;;;;;4954256;28;20480;-76
2022/03/18 12:06:34;;;;;;;33.27;23.70;;;14.30;99.90;;;;;;4954070;29;20449;-77
2022/03/18 12:09:03;;;;;;;33.00;22.60;;;14.50;99.90;;;;;;4953931;28;20592;-77
2022/03/18 12:11:35;;;;;;;34.17;24.27;;;14.70;99.90;;;;;;4953804;28;21004;-77
2022/03/18 12:14:03;;;;;;;32.27;22.83;;;14.70;99.90;;;;;;4953626;28;20848;-76
2022/03/18 12:16:30;;;;;;;39.47;22.43;;;14.70;99.90;;;;;;4953519;28;20456;-76
2022/03/18 12:19:02;;;;;;;33.10;23.30;;;14.70;99.90;;;;;;4954004;28;20553;-77
2022/03/18 12:21:37;;;;;;;33.27;22.40;;;14.60;99.90;;;;;;4953986;29;20438;-76
2022/03/18 12:24:09;;;;;;;30.70;21.60;;;14.70;99.90;;;;;;4953717;28;20807;-76
2022/03/18 12:26:39;;;;;;;31.50;21.70;;;14.80;99.90;;;;;;4953548;28;20464;-76
2022/03/18 12:29:06;;;;;;;33.50;21.43;;;14.90;99.90;;;;;;4954026;29;20541;-77
2022/03/18 12:31:34;;;;;;;33.63;23.60;;;14.80;99.90;;;;;;4953992;29;20841;-76
2022/03/18 12:34:03;;;;;;;35.70;23.00;;;14.80;99.90;;;;;;4953840;28;20572;-76
2022/03/18 12:36:30;;;;;;;34.77;23.00;;;14.80;99.90;;;;;;4953685;28;20552;-75
2022/03/18 12:39:21;;;;;;;33.20;23.60;;;14.80;99.90;;;;;;4953962;29;20540;-73
2022/03/18 12:41:50;;;;;;;27.57;20.40;;;14.60;99.90;;;;;;4934875;29;20477;-75
2022/03/18 12:44:30;;;;;;;31.43;22.10;;;14.60;99.90;;;;;;4953779;28;20557;-75
2022/03/18 12:46:58;;;;;;;29.50;21.43;;;14.50;99.90;;;;;;4953645;28;20502;-75
2022/03/18 12:49:31;;;;;;;32.10;21.83;;;14.60;99.90;;;;;;4953843;29;21018;-75
2022/03/18 12:51:59;;;;;;;31.03;22.53;;;14.70;99.90;;;;;;4953540;28;20496;-75
2022/03/18 12:54:25;;;;;;;27.07;21.53;;;14.90;99.90;;;;;;4952527;28;20480;-75
2022/03/18 12:56:54;;;;;;;30.80;21.40;;;15.00;99.90;;;;;;4952518;29;20553;-75
2022/03/18 12:59:20;;;;;;;31.40;21.47;;;15.00;99.90;;;;;;4952723;29;20540;-75
2022/03/18 13:01:56;;;;;;;30.20;20.37;;;15.00;99.90;;;;;;4952521;29;20464;-75
2022/03/18 13:04:23;;;;;;;32.20;22.10;;;15.20;99.90;;;;;;4952703;28;20572;-75
2022/03/18 13:06:57;;;;;;;30.50;22.97;;;15.20;99.90;;;;;;4952674;29;20449;-75
2022/03/18 13:09:25;;;;;;;32.77;22.23;;;15.20;99.90;;;;;;4952511;29;20520;-75
2022/03/18 13:11:53;;;;;;;31.00;22.57;;;15.20;99.90;;;;;;4952615;29;20548;-75
2022/03/18 13:14:30;;;;;;;33.67;22.67;;;15.20;99.90;;;;;;4952248;28;21016;-75
2022/03/18 13:16:58;;;;;;;29.40;21.50;;;15.30;99.90;;;;;;4952161;29;20999;-75
2022/03/18 13:19:41;;;;;;;30.43;22.20;;;15.40;99.90;;;;;;4952719;29;20450;-75
2022/03/18 13:22:08;;;;;;;29.53;20.90;;;15.30;99.90;;;;;;4950078;29;20559;-75
2022/03/18 13:24:35;;;;;;;29.70;21.10;;;15.20;99.90;;;;;;4952471;28;20576;-75
2022/03/18 13:27:04;;;;;;;27.13;20.30;;;15.30;99.90;;;;;;4952363;29;20464;-75
2022/03/18 13:35:13;;;;;;;27.33;19.80;;;15.40;99.90;;;;;;4916429;29;20467;-76
2022/03/18 13:37:40;;;;;;;28.57;19.47;;;15.30;99.90;;;;;;4946919;28;20463;-75
2022/03/18 13:40:15;;;;;;;26.33;20.07;;;15.30;99.90;;;;;;4957039;29;20457;-75
2022/03/18 13:42:43;;;;;;;31.00;20.10;;;15.30;99.90;;;;;;4956877;29;20457;-76
2022/03/18 13:45:24;;;;;;;31.53;21.23;;;15.30;99.90;;;;;;4956526;28;20997;-76
2022/03/18 13:47:51;;;;;;;30.80;20.40;;;15.30;99.90;;;;;;4956306;29;20511;-75
2022/03/18 13:50:19;;;;;;;27.03;20.00;;;15.30;99.90;;;;;;4956446;29;20457;-75
2022/03/18 13:52:48;;;;;;;29.20;20.67;;;15.40;99.90;;;;;;4956517;29;20977;-76
2022/03/18 13:55:30;;;;;;;27.17;20.53;;;15.30;99.90;;;;;;4956345;28;20469;-75
2022/03/18 13:57:58;;;;;;;26.50;19.27;;;15.20;99.90;;;;;;4955864;29;20937;-75
2022/03/18 14:00:27;;;;;;;29.20;20.97;;;15.20;99.90;;;;;;4956316;29;20492;-75
2022/03/18 14:03:02;;;;;;;27.47;19.80;;;15.10;99.90;;;;;;4956476;28;20464;-76
2022/03/18 14:05:29;;;;;;;29.70;21.03;;;15.10;99.90;;;;;;4956518;29;20900;-75
2022/03/18 14:07:57;;;;;;;28.17;20.97;;;15.10;99.90;;;;;;4955941;29;20516;-75
2022/03/18 14:10:36;;;;;;;27.80;21.00;;;15.10;99.90;;;;;;4956261;28;20977;-75
2022/03/18 14:13:06;;;;;;;31.07;21.57;;;15.00;99.90;;;;;;4955964;28;20491;-76
2022/03/18 14:15:35;;;;;;;27.03;19.60;;;15.10;99.90;;;;;;4956397;28;20453;-75
2022/03/18 14:18:04;;;;;;;28.20;20.40;;;15.20;99.90;;;;;;4956073;29;20453;-76
2022/03/18 14:20:32;;;;;;;27.27;19.80;;;15.20;99.90;;;;;;4956125;29;20441;-75
2022/03/18 14:23:14;;;;;;;28.30;20.50;;;15.20;99.90;;;;;;4955961;29;20476;-75
2022/03/18 14:25:41;;;;;;;31.70;21.10;;;15.30;99.90;;;;;;4952965;28;20468;-75
2022/03/18 14:28:15;;;;;;;27.30;19.20;;;15.20;99.90;;;;;;4951699;29;20871;-75
2022/03/18 14:30:43;;;;;;;30.10;19.77;;;15.20;99.90;;;;;;4952815;28;20528;-75
2022/03/18 14:33:09;;;;;;;29.50;21.07;;;15.20;99.90;;;;;;4952806;29;20469;-75
2022/03/18 14:35:36;;;;;;;25.00;18.97;;;15.10;99.90;;;;;;4952534;29;20496;-75
2022/03/18 14:38:04;;;;;;;30.60;20.70;;;15.10;99.90;;;;;;4951242;28;20469;-75
2022/03/18 14:40:31;;;;;;;28.00;20.43;;;15.20;99.90;;;;;;4952382;29;20457;-75
2022/03/18 14:42:59;;;;;;;29.27;20.10;;;15.20;99.90;;;;;;4951407;29;20470;-75
2022/03/18 14:45:28;;;;;;;31.40;20.90;;;15.10;99.90;;;;;;4952333;28;20820;-75
2022/03/18 14:47:55;;;;;;;29.87;21.50;;;15.00;99.90;;;;;;4954664;29;20464;-76
2022/03/18 14:50:22;;;;;;;30.07;21.03;;;15.00;99.90;;;;;;4955339;28;20461;-70
2022/03/18 14:52:49;;;;;;;26.43;19.83;;;14.90;99.90;;;;;;4955624;29;20457;-70
2022/03/18 14:58:01;;;;;;;29.90;20.73;;;15.00;99.90;;;;;;4955320;29;20565;-73
2022/03/18 15:00:31;;;;;;;31.60;20.00;;;15.00;99.90;;;;;;4955419;29;20461;-75
2022/03/18 15:02:58;;;;;;;32.30;19.73;;;14.90;99.90;;;;;;4955157;28;20472;-75
2022/03/18 15:05:25;;;;;;;32.53;23.37;;;14.70;99.90;;;;;;4955261;29;21064;-75
2022/03/18 15:07:52;;;;;;;30.23;21.87;;;14.60;99.90;;;;;;4954961;29;20946;-76
2022/03/18 15:10:20;;;;;;;30.63;23.00;;;14.60;99.90;;;;;;4955005;29;20576;-75
2022/03/18 15:12:47;;;;;;;29.10;20.90;;;14.50;99.90;;;;;;4955340;29;20540;-76
2022/03/18 15:15:14;;;;;;;29.87;21.67;;;14.50;99.90;;;;;;4955056;29;20490;-76
2022/03/18 15:17:42;;;;;;;29.93;21.60;;;14.40;99.90;;;;;;4954563;29;20494;-76
2022/03/18 15:20:10;;;;;;;28.23;20.10;;;14.30;99.90;;;;;;4955184;29;20460;-75
2022/03/18 15:22:37;;;;;;;33.57;21.10;;;14.40;99.90;;;;;;4954985;29;20468;-76
2022/03/18 15:25:06;;;;;;;32.13;21.40;;;14.40;99.90;;;;;;4954817;28;20491;-76
2022/03/18 15:27:33;;;;;;;33.63;23.10;;;14.30;99.90;;;;;;4954595;29;20457;-76
2022/03/18 15:30:01;;;;;;;30.20;21.93;;;14.30;99.90;;;;;;4954831;29;20556;-76
2022/03/18 15:32:28;;;;;;;28.90;20.10;;;14.30;99.90;;;;;;4954204;29;20812;-77
2022/03/18 15:34:56;;;;;;;33.53;22.43;;;14.20;99.90;;;;;;4954300;29;20505;-76
2022/03/18 15:37:23;;;;;;;28.93;20.60;;;14.20;99.90;;;;;;4954841;29;20453;-76
2022/03/18 15:39:52;;;;;;;36.03;23.63;;;14.00;99.90;;;;;;4955062;29;20473;-77
2022/03/18 15:42:20;;;;;;;31.43;22.40;;;13.90;99.90;;;;;;4954591;29;20454;-76
2022/03/18 15:44:48;;;;;;;31.13;21.23;;;14.00;99.90;;;;;;4954468;29;20477;-75
2022/03/18 15:47:16;;;;;;;31.93;22.20;;;13.90;99.90;;;;;;4954435;28;20462;-75
2022/03/18 15:49:45;;;;;;;33.90;22.20;;;13.80;99.90;;;;;;4954503;29;20529;-75
2022/03/18 15:52:13;;;;;;;31.23;21.67;;;13.70;99.90;;;;;;4954262;28;20965;-76
2022/03/18 15:54:41;;;;;;;30.33;22.07;;;13.70;99.90;;;;;;4953988;29;20926;-76
2022/03/18 15:57:10;;;;;;;31.27;21.20;;;13.70;99.90;;;;;;4953872;28;20548;-76
2022/03/18 15:59:37;;;;;;;30.23;21.10;;;13.70;99.90;;;;;;4954523;28;20457;-76
2022/03/18 16:02:04;;;;;;;31.83;21.70;;;13.70;99.90;;;;;;4954132;28;20468;-75
2022/03/18 16:04:31;;;;;;;31.60;22.37;;;13.70;99.90;;;;;;4954070;29;20580;-75
2022/03/18 16:06:58;;;;;;;31.73;21.10;;;13.70;99.90;;;;;;4954016;29;20460;-75
2022/03/18 16:09:31;;;;;;;33.60;22.10;;;13.70;99.90;;;;;;4953932;28;21039;-75
2022/03/18 16:12:00;;;;;;;32.47;22.70;;;13.80;99.90;;;;;;4954529;29;20488;-75
2022/03/18 16:14:27;;;;;;;31.87;22.33;;;13.70;99.90;;;;;;4953860;29;20573;-75
2022/03/18 16:16:54;;;;;;;28.73;21.07;;;13.80;99.90;;;;;;4953945;29;20858;-75
2022/03/18 16:19:22;;;;;;;32.10;22.13;;;13.80;99.90;;;;;;4954098;29;20481;-75
2022/03/18 16:21:49;;;;;;;27.67;20.97;;;13.70;99.90;;;;;;4953953;29;20462;-75
2022/03/18 16:24:16;;;;;;;32.97;22.37;;;13.70;99.90;;;;;;4953593;29;20495;-75
2022/03/18 16:26:55;;;;;;;29.33;22.07;;;13.80;99.90;;;;;;4953798;29;20532;-75
2022/03/18 16:29:22;;;;;;;34.03;22.10;;;13.70;99.90;;;;;;4953714;29;21010;-75
2022/03/18 16:31:50;;;;;;;28.40;20.33;;;13.80;99.90;;;;;;4953979;29;20453;-75
2022/03/18 16:34:19;;;;;;;32.53;22.00;;;13.80;99.90;;;;;;4953747;28;20524;-74
2022/03/18 16:36:46;;;;;;;32.10;22.67;;;13.70;99.90;;;;;;4953514;28;20841;-75
2022/03/18 16:39:13;;;;;;;34.53;23.23;;;13.60;99.90;;;;;;4954009;29;20457;-74
2022/03/18 16:41:39;;;;;;;34.57;22.67;;;13.50;99.90;;;;;;4953737;28;20457;-75
2022/03/18 16:44:08;;;;;;;30.10;21.77;;;13.50;99.90;;;;;;4953752;29;20484;-77
2022/03/18 16:49:30;;;;;;;34.80;23.20;;;13.30;99.90;;;;;;4953608;28;20480;-74
2022/03/18 16:51:59;;;;;;;36.20;25.10;;;13.20;99.90;;;;;;4953933;29;20449;-73
2022/03/18 16:54:26;;;;;;;32.33;24.10;;;13.10;99.90;;;;;;4953756;29;20477;-74
2022/03/18 16:56:54;;;;;;;36.10;25.20;;;13.10;99.90;;;;;;4953565;29;20449;-74
2022/03/18 16:59:22;;;;;;;33.93;23.40;;;12.90;99.90;;;;;;4953860;29;20949;-74
2022/03/18 17:01:50;;;;;;;36.63;24.30;;;12.80;99.90;;;;;;4953804;29;20493;-75
2022/03/18 17:04:18;;;;;;;36.10;23.97;;;12.70;99.90;;;;;;4953964;28;20556;-75
2022/03/18 17:06:46;;;;;;;36.40;24.20;;;12.60;99.90;;;;;;4957438;29;20467;-75
2022/03/18 17:09:14;;;;;;;32.53;22.73;;;12.50;99.90;;;;;;4957313;29;20539;-74
2022/03/18 17:11:42;;;;;;;38.23;24.00;;;12.30;99.90;;;;;;4957471;29;20833;-74
2022/03/18 17:14:09;;;;;;;36.93;24.40;;;12.30;99.90;;;;;;5003383;23;20940;-77
2022/03/18 17:16:38;;;;;;;35.63;23.70;;;12.30;99.90;;;;;;4995916;28;20466;-77
2022/03/18 17:19:06;;;;;;;37.93;23.87;;;12.20;99.90;;;;;;4994680;28;20534;-79
2022/03/18 17:21:39;;;;;;;41.43;25.27;;;12.10;99.90;;;;;;4989050;28;20474;-77
2022/03/18 17:24:08;;;;;;;36.00;24.03;;;12.00;99.90;;;;;;4990096;28;20479;-78
2022/03/18 17:26:36;;;;;;;39.63;26.30;;;11.90;99.90;;;;;;4988279;28;20455;-75
2022/03/18 17:29:10;;;;;;;37.77;25.17;;;11.80;99.90;;;;;;4989493;28;20487;-77
2022/03/18 17:31:38;;;;;;;38.83;25.70;;;11.70;99.90;;;;;;4989541;28;20525;-76
2022/03/18 17:34:05;;;;;;;44.33;26.90;;;11.70;99.90;;;;;;4989430;28;20542;-78
2022/03/18 17:36:32;;;;;;;39.20;24.80;;;11.70;99.90;;;;;;4988823;28;20487;-77
2022/03/18 17:39:00;;;;;;;37.67;26.30;;;11.60;99.90;;;;;;4989891;28;20451;-77
2022/03/18 17:41:28;;;;;;;38.87;25.87;;;11.50;99.90;;;;;;4989483;28;20482;-79
2022/03/18 17:43:55;;;;;;;43.20;25.70;;;11.40;99.90;;;;;;4992468;28;20467;-78
2022/03/18 17:46:22;;;;;;;37.60;26.17;;;11.30;99.90;;;;;;4989593;28;20518;-78
2022/03/18 17:48:51;;;;;;;41.17;25.70;;;11.30;99.90;;;;;;4989438;28;21007;-77
2022/03/18 17:51:18;;;;;;;41.10;26.93;;;11.20;99.90;;;;;;4989229;28;20458;-77
2022/03/18 17:53:44;;;;;;;42.47;27.97;;;11.10;99.90;;;;;;4989224;28;20463;-78
2022/03/18 17:56:11;;;;;;;43.93;26.90;;;11.10;99.90;;;;;;4989093;28;20558;-78
2022/03/18 17:58:39;;;;;;;42.03;27.73;;;11.00;99.90;;;;;;4989702;28;20478;-77
2022/03/18 18:01:07;;;;;;;47.10;27.80;;;10.90;99.90;;;;;;4989100;28;20456;-78
2022/03/18 18:03:35;;;;;;;43.60;27.43;;;10.90;99.90;;;;;;4989701;28;20471;-78